createdAt,value
2022-12-22T00:03:52.797Z,-1.12
2022-12-22T00:06:38.403Z,-1.01
2022-12-22T00:09:23.761Z,-1.09
2022-12-22T00:12:09.330Z,-1.06
2022-12-22T00:14:54.893Z,-1.13
2022-12-22T00:17:49.265Z,-0.87
2022-12-22T00:20:38.428Z,-0.75
2022-12-22T00:23:23.860Z,-0.79
2022-12-22T00:26:09.080Z,-0.69
2022-12-22T00:28:54.835Z,-0.72
2022-12-22T00:31:41.250Z,-0.91
2022-12-22T00:34:39.700Z,-0.75
2022-12-22T00:37:30.714Z,-0.91
2022-12-22T00:40:17.649Z,-0.70
2022-12-22T00:43:03.244Z,-0.81
2022-12-22T00:45:49.180Z,-0.85
2022-12-22T00:48:42.004Z,-0.86
2022-12-22T00:51:28.546Z,-0.85
2022-12-22T00:54:14.728Z,-0.99
2022-12-22T00:57:00.903Z,-1.27
2022-12-22T00:59:46.826Z,-1.18
2022-12-22T01:02:32.161Z,-1.25
2022-12-22T01:05:17.509Z,-1.42
2022-12-22T01:08:02.985Z,-1.45
2022-12-22T01:10:48.382Z,-1.29
2022-12-22T01:13:34.669Z,-1.35
2022-12-22T01:16:20.149Z,-1.49
2022-12-22T01:19:05.903Z,-1.62
2022-12-22T01:21:51.109Z,-1.23
2022-12-22T01:24:37.783Z,-1.41
2022-12-22T01:27:23.719Z,-1.59
2022-12-22T01:30:09.248Z,-1.61
2022-12-22T01:32:54.744Z,-1.39
2022-12-22T01:35:45.573Z,-1.33
2022-12-22T01:38:30.925Z,-1.42
2022-12-22T01:41:18.670Z,-1.61
2022-12-22T01:44:04.297Z,-1.51
2022-12-22T01:46:52.559Z,-1.50
2022-12-22T01:49:43.107Z,-1.45
2022-12-22T01:52:31.036Z,-1.43
2022-12-22T01:55:20.957Z,-1.32
2022-12-22T01:58:06.546Z,-1.44
2022-12-22T02:00:51.853Z,-1.33
2022-12-22T02:03:40.502Z,-1.33
2022-12-22T02:06:56.235Z,-1.40
2022-12-22T02:10:01.622Z,-1.19
2022-12-22T02:13:09.288Z,-1.19
2022-12-22T02:16:17.255Z,-1.48
2022-12-22T02:19:50.771Z,-1.64
2022-12-22T02:23:05.706Z,-1.71
2022-12-22T02:26:00.519Z,-1.59
2022-12-22T02:28:46.306Z,-1.76
2022-12-22T02:31:31.675Z,-1.96
2022-12-22T02:34:17.314Z,-1.99
2022-12-22T02:37:22.947Z,-2.11
2022-12-22T02:40:21.624Z,-2.11
2022-12-22T02:43:32.306Z,-1.78
2022-12-22T02:46:40.099Z,-1.79
2022-12-22T02:49:58.077Z,-1.74
2022-12-22T02:52:49.560Z,-2.03
2022-12-22T02:55:35.794Z,-2.15
2022-12-22T02:58:21.228Z,-2.22
2022-12-22T03:01:06.927Z,-2.34
2022-12-22T03:03:52.261Z,-2.21
2022-12-22T03:06:37.773Z,-2.06
2022-12-22T03:09:22.977Z,-2.22
2022-12-22T03:12:08.737Z,-2.38
2022-12-22T03:14:54.085Z,-2.27
2022-12-22T03:17:39.374Z,-2.48
2022-12-22T03:20:25.366Z,-2.54
2022-12-22T03:23:10.889Z,-2.61
2022-12-22T03:25:53.493Z,-2.46
2022-12-22T03:28:28.541Z,-2.19
2022-12-22T03:31:01.734Z,-2.09
2022-12-22T03:33:29.714Z,-2.39
2022-12-22T03:35:56.751Z,-2.53
2022-12-22T03:38:23.500Z,-2.42
2022-12-22T03:40:50.329Z,-2.60
2022-12-22T03:43:36.417Z,-2.59
2022-12-22T03:46:15.333Z,-2.77
2022-12-22T03:48:42.607Z,-2.68
2022-12-22T03:51:09.393Z,-2.67
2022-12-22T03:53:36.185Z,-2.60
2022-12-22T03:56:07.717Z,-2.74
2022-12-22T03:58:35.141Z,-2.81
2022-12-22T04:01:08.322Z,-2.54
2022-12-22T04:03:35.159Z,-2.68
2022-12-22T04:06:01.958Z,-2.82
2022-12-22T04:08:28.776Z,-2.79
2022-12-22T04:11:14.240Z,-2.62
2022-12-22T04:13:41.033Z,-2.61
2022-12-22T04:16:07.825Z,-2.78
2022-12-22T04:18:34.583Z,-2.86
2022-12-22T04:21:01.349Z,-2.78
2022-12-22T04:23:28.125Z,-2.79
2022-12-22T04:25:55.024Z,-2.84
2022-12-22T04:28:22.113Z,-2.73
2022-12-22T04:30:52.171Z,-2.76
2022-12-22T04:33:18.927Z,-2.78
2022-12-22T04:35:45.674Z,-2.56
2022-12-22T04:38:12.494Z,-2.46
2022-12-22T04:40:39.208Z,-2.39
2022-12-22T04:43:06.337Z,-2.50
2022-12-22T04:45:33.127Z,-2.45
2022-12-22T04:47:59.972Z,-2.42
2022-12-22T04:50:26.869Z,-2.37
2022-12-22T04:52:53.635Z,-2.33
2022-12-22T04:55:20.524Z,-2.58
2022-12-22T04:57:47.294Z,-2.35
2022-12-22T05:00:15.042Z,-2.35
2022-12-22T05:02:41.782Z,-2.34
2022-12-22T05:05:09.083Z,-2.41
2022-12-22T05:07:35.851Z,-2.55
2022-12-22T05:10:04.286Z,-2.44
2022-12-22T05:12:49.469Z,-2.52
2022-12-22T05:15:16.362Z,-2.47
2022-12-22T05:17:43.041Z,-2.52
2022-12-22T05:20:10.056Z,-2.50
2022-12-22T05:22:36.882Z,-2.68
2022-12-22T05:25:03.865Z,-2.65
2022-12-22T05:27:30.582Z,-2.52
2022-12-22T05:29:57.272Z,-2.44
2022-12-22T05:32:24.078Z,-2.38
2022-12-22T05:34:50.808Z,-2.45
2022-12-22T05:37:17.533Z,-2.41
2022-12-22T05:39:44.379Z,-2.25
2022-12-22T05:42:11.107Z,-2.30
2022-12-22T05:44:37.902Z,-2.45
2022-12-22T05:47:04.662Z,-2.13
2022-12-22T05:49:31.473Z,-2.22
2022-12-22T05:51:58.195Z,-2.12
2022-12-22T05:54:24.944Z,-2.17
2022-12-22T05:56:51.731Z,-2.21
2022-12-22T05:59:18.502Z,-2.29
2022-12-22T06:01:45.300Z,-2.46
2022-12-22T06:04:12.327Z,-2.23
2022-12-22T06:06:39.216Z,-2.19
2022-12-22T06:09:05.948Z,-2.15
2022-12-22T06:11:32.748Z,-2.06
2022-12-22T06:13:59.513Z,-2.03
2022-12-22T06:16:26.253Z,-2.11
2022-12-22T06:18:53.101Z,-2.04
2022-12-22T06:21:19.835Z,-2.03
2022-12-22T06:23:46.976Z,-2.05
2022-12-22T06:26:13.760Z,-1.77
2022-12-22T06:28:40.558Z,-1.67
2022-12-22T06:31:07.338Z,-1.80
2022-12-22T06:33:34.770Z,-1.74
2022-12-22T06:36:05.556Z,-1.84
2022-12-22T06:38:32.453Z,-1.81
2022-12-22T06:40:59.208Z,-1.65
2022-12-22T06:43:26.371Z,-1.59
2022-12-22T06:45:53.774Z,-1.62
2022-12-22T06:48:20.793Z,-1.64
2022-12-22T06:50:47.903Z,-1.60
2022-12-22T06:53:14.817Z,-1.64
2022-12-22T06:55:41.624Z,-1.49
2022-12-22T06:58:08.426Z,-1.26
2022-12-22T07:00:35.567Z,-1.41
2022-12-22T07:03:02.442Z,-1.51
2022-12-22T07:05:32.041Z,-1.28
2022-12-22T07:08:05.968Z,-1.34
2022-12-22T07:10:53.650Z,-1.31
2022-12-22T07:13:20.578Z,-1.14
2022-12-22T07:15:53.885Z,-1.23
2022-12-22T07:18:26.580Z,-1.22
2022-12-22T07:20:54.617Z,-1.25
2022-12-22T07:23:21.378Z,-1.26
2022-12-22T07:25:48.133Z,-1.21
2022-12-22T07:28:20.180Z,-1.06
2022-12-22T07:30:47.885Z,-1.07
2022-12-22T07:33:14.741Z,-1.21
2022-12-22T07:35:41.506Z,-1.12
2022-12-22T07:38:08.345Z,-1.13
2022-12-22T07:40:39.591Z,-1.12
2022-12-22T07:43:08.814Z,-1.02
2022-12-22T07:45:35.612Z,-0.96
2022-12-22T07:48:22.869Z,-0.90
2022-12-22T07:50:49.638Z,-0.97
2022-12-22T07:53:16.355Z,-0.85
2022-12-22T07:55:43.094Z,-0.76
2022-12-22T07:58:09.847Z,-0.53
2022-12-22T08:00:36.588Z,-0.51
2022-12-22T08:03:03.422Z,-0.42
2022-12-22T08:05:30.332Z,-0.51
2022-12-22T08:07:57.037Z,-0.29
2022-12-22T08:10:24.177Z,-0.19
2022-12-22T08:12:51.108Z,-0.11
2022-12-22T08:15:18.069Z,-0.04
2022-12-22T08:17:44.893Z,0.06
2022-12-22T08:20:11.868Z,-0.02
2022-12-22T08:22:38.661Z,0.10
2022-12-22T08:25:05.662Z,0.23
2022-12-22T08:27:44.459Z,0.24
2022-12-22T08:30:12.536Z,0.28
2022-12-22T08:32:40.939Z,0.59
2022-12-22T08:35:09.408Z,0.57
2022-12-22T08:37:41.627Z,0.59
2022-12-22T08:40:12.971Z,0.75
2022-12-22T08:42:40.855Z,0.96
2022-12-22T08:45:09.487Z,0.80
2022-12-22T08:47:36.471Z,0.75
2022-12-22T08:50:04.197Z,0.67
2022-12-22T08:52:31.721Z,0.73
2022-12-22T08:54:58.561Z,0.92
2022-12-22T08:57:25.331Z,1.20
2022-12-22T08:59:52.117Z,1.17
2022-12-22T09:02:18.936Z,1.10
2022-12-22T09:04:45.817Z,1.03
2022-12-22T09:07:12.765Z,1.21
2022-12-22T09:09:39.639Z,1.34
2022-12-22T09:12:06.908Z,1.37
2022-12-22T09:14:34.089Z,1.42
2022-12-22T09:17:01.069Z,1.28
2022-12-22T09:19:28.236Z,1.18
2022-12-22T09:21:55.137Z,1.24
2022-12-22T09:24:22.070Z,1.19
2022-12-22T09:26:48.883Z,1.35
2022-12-22T09:29:16.005Z,1.49
2022-12-22T09:31:43.334Z,1.20
2022-12-22T09:34:15.336Z,1.31
2022-12-22T09:36:45.122Z,1.18
2022-12-22T09:39:12.051Z,1.27
2022-12-22T09:41:51.540Z,1.27
2022-12-22T09:44:21.007Z,1.39
2022-12-22T09:46:48.028Z,1.50
2022-12-22T09:49:16.924Z,1.58
2022-12-22T09:51:49.128Z,1.40
2022-12-22T09:54:16.406Z,1.24
2022-12-22T09:56:43.468Z,1.43
2022-12-22T09:59:15.585Z,1.39
2022-12-22T10:02:00.981Z,1.46
2022-12-22T10:04:57.364Z,1.59
2022-12-22T10:07:38.604Z,1.98
2022-12-22T10:10:15.893Z,2.02
2022-12-22T10:12:42.812Z,1.81
2022-12-22T10:15:18.348Z,1.88
2022-12-22T10:17:54.384Z,2.10
2022-12-22T10:20:27.879Z,2.03
2022-12-22T10:22:59.242Z,2.26
2022-12-22T10:26:25.970Z,2.06
2022-12-22T10:28:29.174Z,2.01
2022-12-22T10:31:14.336Z,2.15
2022-12-22T10:33:46.761Z,2.21
2022-12-22T10:36:16.507Z,1.97
2022-12-22T10:39:08.973Z,2.20
2022-12-22T10:41:40.371Z,2.33
2022-12-22T10:44:16.273Z,2.20
2022-12-22T10:46:47.092Z,2.05
2022-12-22T10:49:16.988Z,2.14
2022-12-22T10:51:47.404Z,1.97
2022-12-22T10:54:31.434Z,1.87
2022-12-22T10:57:07.741Z,1.87
2022-12-22T10:59:46.609Z,1.86
2022-12-22T11:02:28.077Z,1.91
2022-12-22T11:05:02.158Z,2.14
2022-12-22T11:07:32.037Z,1.90
2022-12-22T11:09:58.843Z,2.11
2022-12-22T11:12:40.609Z,2.16
2022-12-22T11:15:29.826Z,2.29
2022-12-22T11:18:19.873Z,2.39
2022-12-22T11:21:05.487Z,2.28
2022-12-22T11:23:53.384Z,2.52
2022-12-22T11:26:44.759Z,2.33
2022-12-22T11:29:41.828Z,2.43
2022-12-22T11:32:51.901Z,2.43
2022-12-22T11:35:56.319Z,2.24
2022-12-22T11:38:46.861Z,2.39
2022-12-22T11:41:42.868Z,2.49
2022-12-22T11:44:28.737Z,2.53
2022-12-22T11:47:40.225Z,2.61
2022-12-22T11:51:01.979Z,2.78
2022-12-22T11:53:37.149Z,2.67
2022-12-22T11:56:22.501Z,2.78
2022-12-22T11:59:35.099Z,2.86
2022-12-22T12:02:31.880Z,2.63
2022-12-22T12:05:08.024Z,2.86
2022-12-22T12:07:37.776Z,2.95
2022-12-22T12:10:25.703Z,3.07
2022-12-22T12:13:27.472Z,2.91
2022-12-22T12:16:20.181Z,2.75
2022-12-22T12:19:14.441Z,2.82
2022-12-22T12:21:52.765Z,3.13
2022-12-22T12:24:25.849Z,3.21
2022-12-22T12:27:32.087Z,3.30
2022-12-22T12:30:37.645Z,3.36
2022-12-22T12:33:08.747Z,3.11
2022-12-22T12:36:02.947Z,3.35
2022-12-22T12:41:33.540Z,3.38
2022-12-22T12:44:02.620Z,3.18
2022-12-22T12:46:51.737Z,2.95
2022-12-22T12:49:58.770Z,3.06
2022-12-22T12:52:40.547Z,3.12
2022-12-22T12:55:33.154Z,3.21
2022-12-22T12:58:03.519Z,3.13
2022-12-22T13:00:35.021Z,3.01
2022-12-22T13:03:04.151Z,2.81
2022-12-22T13:05:51.794Z,3.00
2022-12-22T13:08:24.396Z,3.02
2022-12-22T13:10:54.179Z,2.62
2022-12-22T13:13:26.564Z,2.65
2022-12-22T13:16:02.782Z,2.68
2022-12-22T13:18:29.888Z,2.73
2022-12-22T13:21:18.615Z,2.63
2022-12-22T13:24:24.096Z,2.62
2022-12-22T13:26:55.307Z,2.54
2022-12-22T13:29:22.122Z,2.37
2022-12-22T13:31:53.208Z,2.56
2022-12-22T13:34:22.915Z,2.35
2022-12-22T13:36:51.128Z,2.42
2022-12-22T13:39:17.878Z,2.25
2022-12-22T13:41:48.627Z,2.17
2022-12-22T13:44:33.824Z,2.25
2022-12-22T13:47:06.404Z,2.38
2022-12-22T13:50:07.056Z,2.24
2022-12-22T13:52:23.713Z,2.16
2022-12-22T13:54:50.607Z,1.95
2022-12-22T13:57:20.541Z,2.15
2022-12-22T13:59:50.490Z,2.07
2022-12-22T14:02:20.033Z,2.32
2022-12-22T14:05:07.369Z,2.24
2022-12-22T14:07:34.178Z,2.16
2022-12-22T14:10:01.129Z,2.36
2022-12-22T14:12:41.183Z,2.31
2022-12-22T14:15:17.625Z,2.22
2022-12-22T14:17:52.273Z,2.04
2022-12-22T14:20:27.050Z,1.98
2022-12-22T14:22:59.443Z,1.66
2022-12-22T14:25:32.098Z,1.98
2022-12-22T14:27:59.615Z,1.98
2022-12-22T14:30:42.230Z,2.20
2022-12-22T14:33:38.642Z,1.87
2022-12-22T14:36:17.347Z,2.15
2022-12-22T14:38:50.016Z,1.94
2022-12-22T14:41:42.955Z,1.85
2022-12-22T14:44:14.325Z,1.73
2022-12-22T14:46:42.979Z,1.59
2022-12-22T14:49:19.076Z,1.77
2022-12-22T14:52:05.869Z,1.83
2022-12-22T14:54:32.796Z,1.89
2022-12-22T14:57:10.005Z,2.01
2022-12-22T14:59:42.008Z,1.61
2022-12-22T15:02:34.924Z,2.12
2022-12-22T15:05:24.282Z,2.01
2022-12-22T15:08:09.903Z,1.93
2022-12-22T15:10:44.700Z,2.09
2022-12-22T15:13:24.299Z,2.39
2022-12-22T15:15:51.936Z,2.53
2022-12-22T15:18:26.785Z,2.51
2022-12-22T15:20:55.147Z,2.73
2022-12-22T15:23:22.435Z,2.85
2022-12-22T15:25:49.148Z,2.90
2022-12-22T15:28:16.090Z,2.94
2022-12-22T15:30:43.287Z,2.91
2022-12-22T15:33:13.723Z,2.90
2022-12-22T15:35:41.289Z,2.85
2022-12-22T15:38:16.357Z,2.86
2022-12-22T15:40:43.526Z,2.60
2022-12-22T15:43:28.703Z,2.87
2022-12-22T15:45:58.693Z,2.53
2022-12-22T15:48:29.494Z,2.62
2022-12-22T15:50:57.108Z,2.60
2022-12-22T15:53:24.075Z,2.47
2022-12-22T15:55:53.491Z,2.64
2022-12-22T15:58:26.272Z,2.72
2022-12-22T16:00:53.116Z,2.68
2022-12-22T16:03:20.153Z,2.80
2022-12-22T16:05:46.982Z,2.75
2022-12-22T16:08:20.524Z,2.81
2022-12-22T16:10:51.420Z,2.76
2022-12-22T16:13:22.513Z,2.90
2022-12-22T16:15:53.731Z,2.83
2022-12-22T16:18:29.558Z,2.83
2022-12-22T16:21:04.684Z,3.01
2022-12-22T16:23:31.454Z,2.77
2022-12-22T16:26:02.090Z,2.66
2022-12-22T16:28:30.215Z,2.73
2022-12-22T16:30:57.308Z,2.58
2022-12-22T16:33:24.038Z,2.64
2022-12-22T16:35:56.055Z,2.57
2022-12-22T16:38:22.926Z,2.56
2022-12-22T16:40:53.159Z,2.52
2022-12-22T16:46:17.739Z,2.51
2022-12-22T16:48:55.563Z,2.31
2022-12-22T16:51:28.232Z,2.40
2022-12-22T16:53:55.423Z,2.36
2022-12-22T16:56:28.223Z,2.41
2022-12-22T16:58:55.270Z,2.34
2022-12-22T17:01:40.092Z,2.42
2022-12-22T17:04:23.985Z,2.39
2022-12-22T17:06:55.717Z,2.32
2022-12-22T17:09:34.505Z,2.39
2022-12-22T17:12:01.812Z,2.27
2022-12-22T17:14:39.908Z,2.29
2022-12-22T17:17:19.311Z,2.28
2022-12-22T17:19:50.109Z,2.63
2022-12-22T17:22:29.744Z,2.92
2022-12-22T17:25:02.224Z,3.15
2022-12-22T17:27:32.668Z,3.15
2022-12-22T17:30:05.858Z,3.29
2022-12-22T17:32:32.836Z,3.33
2022-12-22T17:35:05.956Z,3.30
2022-12-22T17:37:33.753Z,3.28
2022-12-22T17:40:02.735Z,3.33
2022-12-22T17:42:32.038Z,3.64
2022-12-22T17:44:58.965Z,3.74
2022-12-22T17:47:33.391Z,3.74
2022-12-22T17:50:03.846Z,3.71
2022-12-22T17:52:30.750Z,3.80
2022-12-22T17:54:57.748Z,3.93
2022-12-22T17:57:33.082Z,3.82
2022-12-22T18:00:01.266Z,3.77
2022-12-22T18:02:29.713Z,3.68
2022-12-22T18:04:56.708Z,3.50
2022-12-22T18:07:25.133Z,3.71
2022-12-22T18:09:59.097Z,3.57
2022-12-22T18:12:26.180Z,3.51
2022-12-22T18:14:53.160Z,3.52
2022-12-22T18:17:23.353Z,3.54
2022-12-22T18:19:50.392Z,3.46
2022-12-22T18:22:25.815Z,3.51
2022-12-22T18:24:54.634Z,3.26
2022-12-22T18:27:23.116Z,3.26
2022-12-22T18:29:50.216Z,3.31
2022-12-22T18:32:26.292Z,3.23
2022-12-22T18:34:54.413Z,3.33
2022-12-22T18:37:21.250Z,3.18
2022-12-22T18:39:48.065Z,3.08
2022-12-22T18:42:23.007Z,3.25
2022-12-22T18:44:51.085Z,3.33
2022-12-22T18:47:18.485Z,3.30
2022-12-22T18:49:45.863Z,3.29
2022-12-22T18:52:19.351Z,3.46
2022-12-22T18:54:46.709Z,3.72
2022-12-22T18:57:16.223Z,3.56
2022-12-22T18:59:43.912Z,3.72
2022-12-22T19:02:27.219Z,3.52
2022-12-22T19:04:54.958Z,3.59
2022-12-22T19:07:25.488Z,3.63
2022-12-22T19:09:52.509Z,3.70
2022-12-22T19:12:23.423Z,3.77
2022-12-22T19:14:58.637Z,3.89
2022-12-22T19:17:29.748Z,4.09
2022-12-22T19:19:57.744Z,3.97
2022-12-22T19:22:24.845Z,3.83
2022-12-22T19:24:52.316Z,3.68
2022-12-22T19:27:26.095Z,3.36
2022-12-22T19:30:04.055Z,3.35
2022-12-22T19:32:39.671Z,3.16
2022-12-22T19:35:33.854Z,3.07
2022-12-22T19:38:00.726Z,3.10
2022-12-22T19:40:33.678Z,3.13
2022-12-22T19:43:00.701Z,3.17
2022-12-22T19:45:30.728Z,3.21
2022-12-22T19:47:58.171Z,3.36
2022-12-22T19:50:28.416Z,3.23
2022-12-22T19:52:56.869Z,3.53
2022-12-22T19:55:28.594Z,3.30
2022-12-22T19:57:56.398Z,3.15
2022-12-22T20:00:26.045Z,3.02
2022-12-22T20:02:56.196Z,3.13
2022-12-22T20:05:22.852Z,3.08
2022-12-22T20:07:56.347Z,2.94
2022-12-22T20:10:24.739Z,2.94
2022-12-22T20:12:54.327Z,2.90
2022-12-22T20:15:30.608Z,2.93
2022-12-22T20:17:58.233Z,2.99
2022-12-22T20:20:36.672Z,3.04
2022-12-22T20:23:10.673Z,2.86
2022-12-22T20:25:43.155Z,2.86
2022-12-22T20:28:25.707Z,2.87
2022-12-22T20:30:53.574Z,2.87
2022-12-22T20:33:22.532Z,2.92
2022-12-22T20:35:51.579Z,2.94
2022-12-22T20:38:29.906Z,2.93
2022-12-22T20:40:56.883Z,2.83
2022-12-22T20:43:26.067Z,2.79
2022-12-22T20:45:57.017Z,2.61
2022-12-22T20:48:30.448Z,2.47
2022-12-22T20:50:57.705Z,2.50
2022-12-22T20:53:24.736Z,2.49
2022-12-22T20:55:52.409Z,2.35
2022-12-22T20:58:23.906Z,2.36
2022-12-22T21:00:53.180Z,2.16
2022-12-22T21:03:20.064Z,2.09
2022-12-22T21:05:48.084Z,1.83
2022-12-22T21:08:26.388Z,1.76
2022-12-22T21:10:54.859Z,1.69
2022-12-22T21:13:22.398Z,1.68
2022-12-22T21:15:51.984Z,1.64
2022-12-22T21:18:23.267Z,1.76
2022-12-22T21:20:51.328Z,1.89
2022-12-22T21:23:18.113Z,1.68
2022-12-22T21:25:48.835Z,2.03
2022-12-22T21:28:28.330Z,2.02
2022-12-22T21:30:55.183Z,2.09
2022-12-22T21:33:23.599Z,2.13
2022-12-22T21:35:51.523Z,2.18
2022-12-22T21:38:20.532Z,2.14
2022-12-22T21:40:47.428Z,2.02
2022-12-22T21:43:15.702Z,2.34
2022-12-22T21:45:45.924Z,2.23
2022-12-22T21:48:16.589Z,2.54
2022-12-22T21:50:43.491Z,2.59
2022-12-22T21:53:10.339Z,2.56
2022-12-22T21:55:39.555Z,2.53
2022-12-22T21:58:10.178Z,2.61
2022-12-22T22:00:41.408Z,2.53
2022-12-22T22:03:08.360Z,2.54
2022-12-22T22:05:39.629Z,2.58
2022-12-22T22:08:09.123Z,2.54
2022-12-22T22:10:43.848Z,2.59
2022-12-22T22:13:15.617Z,2.63
2022-12-22T22:15:43.193Z,2.26
2022-12-22T22:18:20.828Z,2.46
2022-12-22T22:20:48.100Z,2.26
2022-12-22T22:23:15.198Z,2.38
2022-12-22T22:25:42.192Z,2.30
2022-12-22T22:28:11.698Z,2.38
2022-12-22T22:30:44.553Z,2.35
2022-12-22T22:33:11.500Z,2.33
2022-12-22T22:35:41.665Z,2.48
2022-12-22T22:38:17.884Z,2.46
2022-12-22T22:40:50.681Z,2.56
2022-12-22T22:43:17.462Z,2.53
2022-12-22T22:45:44.298Z,2.45
2022-12-22T22:48:19.806Z,2.24
2022-12-22T22:50:46.612Z,2.14
2022-12-22T22:53:14.919Z,2.28
2022-12-22T22:55:41.908Z,2.16
2022-12-22T22:58:11.655Z,1.94
2022-12-22T23:00:39.298Z,2.30
2022-12-22T23:03:06.650Z,2.15
2022-12-22T23:05:33.766Z,2.28
2022-12-22T23:08:00.528Z,2.07
2022-12-22T23:10:27.371Z,1.86
2022-12-22T23:12:55.071Z,1.98
2022-12-22T23:15:21.936Z,1.89
2022-12-22T23:17:51.267Z,1.93
2022-12-22T23:20:18.122Z,1.85
2022-12-22T23:22:44.860Z,1.86
2022-12-22T23:25:11.648Z,1.73
2022-12-22T23:27:38.460Z,1.82
2022-12-22T23:30:05.765Z,1.49
2022-12-22T23:32:32.619Z,1.49
2022-12-22T23:34:59.447Z,1.53
2022-12-22T23:37:26.599Z,1.38
2022-12-22T23:39:53.370Z,1.37
2022-12-22T23:42:20.216Z,1.13
2022-12-22T23:44:48.374Z,1.03
2022-12-22T23:47:15.101Z,1.06
2022-12-22T23:49:41.911Z,0.88
2022-12-22T23:52:08.668Z,0.76
2022-12-22T23:54:35.480Z,0.70
2022-12-22T23:57:02.321Z,0.60
2022-12-22T23:59:29.184Z,0.74
